KDPG/DPG METAR and TAF weather

Enter ICAO airport designator
Station Type Date Time Source
KDPG METAR 2020/09/17 21:55 UTC NOAA

KDPG 172155Z 15008KT 30SM FEW120 FEW150 BKN170 34/M06 A3012 RMK FU BKN170 SLP152 T03381056


Station Type Date Time Source
KDPG Decoded METAR 2020/09/17 21:55 UTC NOAA

Dugway Proving Grounds, UT, United States (KDPG) 40-10N 112-56W 1325M
Sep 17, 2020 - 05:55 PM EDT / 2020.09.17 2155 UTC
Wind: from the SSE (150 degrees) at 9 MPH (8 KT):0
Visibility: 30 mile(s):0
Sky conditions: mostly cloudy
Temperature: 92.8 F (33.8 C)
Dew Point: 21.9 F (-5.6 C)
Relative Humidity: 7%
Pressure (altimeter): 30.12 in. Hg (1019 hPa)
ob: KDPG 172155Z 15008KT 30SM FEW120 FEW150 BKN170 34/M06 A3012 RMK FU BKN170 SLP152 T03381056
cycle: 22

Station Type Date Time Source
KDPG TAF UTC NOAA

Error!

Example: see airport list